Time;durP1;ratioP1;P1;durP2;ratioP2;P2;SDS_P1;SDS_P2;PMS_P1;PMS_P2;Temp;Humidity;BMP_temperature;BMP_pressure;BME280_temperature;BME280_humidity;BME280_pressure;Samples;Min_cycle;Max_cycle;Signal;HPM_P1;HPM_P2
2023/10/08 00:00:43;;;;;;;20.27;7.22;;;;;;;;;;4994707;28;20030;-65
2023/10/08 00:03:10;;;;;;;20.30;6.32;;;;;;;;;;4994573;28;20030;-65
2023/10/08 00:05:39;;;;;;;20.00;7.43;;;;;;;;;;4994172;28;20106;-66
2023/10/08 00:08:07;;;;;;;20.27;6.63;;;;;;;;;;4994295;28;20033;-65
2023/10/08 00:10:42;;;;;;;26.08;7.45;;;;;;;;;;4994091;28;20049;-65
2023/10/08 00:13:09;;;;;;;22.35;7.93;;;;;;;;;;4994398;28;20467;-65
2023/10/08 00:15:37;;;;;;;20.70;7.28;;;;;;;;;;4994446;28;20022;-65
2023/10/08 00:18:04;;;;;;;16.70;6.97;;;;;;;;;;4994260;28;20062;-65
2023/10/08 00:20:35;;;;;;;18.50;7.18;;;;;;;;;;4994380;28;20026;-65
2023/10/08 00:23:02;;;;;;;25.08;8.48;;;;;;;;;;4993833;28;20113;-65
2023/10/08 00:25:27;;;;;;;26.25;8.38;;;;;;;;;;4994222;28;20021;-65
2023/10/08 00:27:53;;;;;;;22.30;8.27;;;;;;;;;;4994046;28;20375;-65
2023/10/08 00:30:18;;;;;;;22.53;8.53;;;;;;;;;;4993824;28;20260;-65
2023/10/08 00:32:44;;;;;;;23.38;8.25;;;;;;;;;;4993968;28;20021;-65
2023/10/08 00:35:13;;;;;;;19.95;6.43;;;;;;;;;;4993967;28;20087;-65
2023/10/08 00:37:40;;;;;;;24.88;7.47;;;;;;;;;;4994186;28;20492;-65
2023/10/08 00:40:11;;;;;;;22.23;8.73;;;;;;;;;;4993765;28;20038;-65
2023/10/08 00:42:37;;;;;;;17.48;7.15;;;;;;;;;;4993501;28;20493;-65
2023/10/08 00:45:04;;;;;;;18.48;7.03;;;;;;;;;;4993706;28;20027;-65
2023/10/08 00:47:34;;;;;;;27.98;7.22;;;;;;;;;;4993979;28;20022;-65
2023/10/08 00:50:08;;;;;;;24.98;8.07;;;;;;;;;;4994309;28;20416;-65
2023/10/08 00:52:57;;;;;;;21.90;7.53;;;;;;;;;;4993976;28;20023;-66
2023/10/08 00:55:28;;;;;;;21.38;7.47;;;;;;;;;;4993886;28;20029;-65
2023/10/08 00:57:57;;;;;;;15.80;5.95;;;;;;;;;;4993567;28;20101;-65
2023/10/08 01:00:22;;;;;;;22.38;6.35;;;;;;;;;;4993859;28;20038;-65
2023/10/08 01:02:54;;;;;;;22.30;7.15;;;;;;;;;;4993319;28;20498;-66
2023/10/08 01:05:42;;;;;;;17.85;6.60;;;;;;;;;;4993813;28;20027;-66
2023/10/08 01:08:06;;;;;;;18.55;6.47;;;;;;;;;;4993209;28;20023;-66
2023/10/08 01:10:32;;;;;;;23.30;7.75;;;;;;;;;;4993327;28;20043;-66
2023/10/08 01:15:29;;;;;;;28.08;7.28;;;;;;;;;;4993433;28;20457;-66
2023/10/08 01:18:00;;;;;;;27.23;7.30;;;;;;;;;;4993728;28;20065;-66
2023/10/08 01:20:36;;;;;;;21.20;6.53;;;;;;;;;;4993389;28;20113;-66
2023/10/08 01:23:09;;;;;;;22.48;7.18;;;;;;;;;;4993371;28;20516;-66
2023/10/08 01:25:34;;;;;;;20.55;7.13;;;;;;;;;;4993477;28;20026;-66
2023/10/08 01:28:01;;;;;;;21.53;7.57;;;;;;;;;;4993121;28;20073;-66
2023/10/08 01:30:26;;;;;;;17.52;6.75;;;;;;;;;;4993527;28;20806;-66
2023/10/08 01:32:51;;;;;;;22.42;7.03;;;;;;;;;;4993298;28;20030;-66
2023/10/08 01:35:23;;;;;;;16.40;6.07;;;;;;;;;;4993084;28;20789;-66
2023/10/08 01:37:52;;;;;;;27.00;6.20;;;;;;;;;;4993497;28;20045;-66
2023/10/08 01:40:17;;;;;;;19.13;5.68;;;;;;;;;;4992977;28;20030;-66
2023/10/08 01:42:43;;;;;;;24.95;6.93;;;;;;;;;;4993109;28;20022;-66
2023/10/08 01:45:10;;;;;;;29.23;6.83;;;;;;;;;;4993192;28;20533;-66
2023/10/08 01:47:35;;;;;;;18.15;7.03;;;;;;;;;;4992920;28;20299;-66
2023/10/08 01:50:05;;;;;;;27.00;6.35;;;;;;;;;;4993368;28;20030;-66
2023/10/08 01:52:30;;;;;;;23.77;6.53;;;;;;;;;;4993184;28;20581;-66
2023/10/08 01:54:56;;;;;;;21.85;6.28;;;;;;;;;;4996737;28;20034;-66
2023/10/08 01:57:21;;;;;;;22.00;7.07;;;;;;;;;;4996671;28;20022;-66
2023/10/08 01:59:46;;;;;;;19.75;5.75;;;;;;;;;;4996613;28;20022;-66
2023/10/08 02:02:14;;;;;;;20.37;7.87;;;;;;;;;;4996482;28;20022;-66
2023/10/08 02:04:40;;;;;;;17.90;5.57;;;;;;;;;;4996551;28;20267;-66
2023/10/08 02:07:12;;;;;;;18.10;6.53;;;;;;;;;;4996390;28;20026;-66
2023/10/08 02:09:37;;;;;;;22.50;7.13;;;;;;;;;;4996535;28;20068;-66
2023/10/08 02:12:03;;;;;;;29.87;7.47;;;;;;;;;;4996608;28;20027;-66
2023/10/08 02:14:31;;;;;;;17.65;6.05;;;;;;;;;;4996251;28;20318;-66
2023/10/08 02:16:57;;;;;;;23.50;6.20;;;;;;;;;;4996406;28;20038;-66
2023/10/08 02:19:28;;;;;;;16.40;6.18;;;;;;;;;;4996519;28;20088;-66
2023/10/08 02:21:54;;;;;;;23.48;6.10;;;;;;;;;;4996495;28;20434;-66
2023/10/08 02:24:21;;;;;;;19.73;6.60;;;;;;;;;;4996226;28;20023;-66
2023/10/08 02:26:46;;;;;;;18.73;6.40;;;;;;;;;;4996195;28;20018;-66
2023/10/08 02:29:12;;;;;;;25.88;7.25;;;;;;;;;;4996464;28;20359;-66
2023/10/08 02:31:38;;;;;;;21.00;6.60;;;;;;;;;;4996186;28;20041;-66
2023/10/08 02:34:04;;;;;;;21.98;6.15;;;;;;;;;;4994921;28;20154;-66
2023/10/08 02:36:32;;;;;;;17.35;5.63;;;;;;;;;;4996247;28;20578;-66
2023/10/08 02:38:57;;;;;;;19.47;6.70;;;;;;;;;;4994422;28;20105;-66
2023/10/08 02:41:24;;;;;;;23.07;7.30;;;;;;;;;;4989332;28;20026;-66
2023/10/08 02:43:49;;;;;;;24.50;6.20;;;;;;;;;;4995886;28;20310;-66
2023/10/08 02:46:15;;;;;;;20.55;6.03;;;;;;;;;;4996380;28;20018;-66
2023/10/08 02:48:40;;;;;;;22.58;7.18;;;;;;;;;;4996193;28;20094;-66
2023/10/08 02:51:14;;;;;;;17.10;6.65;;;;;;;;;;4995769;28;20035;-66
2023/10/08 02:53:43;;;;;;;31.17;7.45;;;;;;;;;;4995607;28;20029;-66
2023/10/08 02:56:13;;;;;;;22.63;7.10;;;;;;;;;;4995549;28;20031;-66
2023/10/08 02:58:43;;;;;;;21.63;6.45;;;;;;;;;;4995380;28;20109;-66
2023/10/08 03:01:12;;;;;;;21.13;6.45;;;;;;;;;;4995900;28;20430;-65
2023/10/08 03:03:37;;;;;;;21.05;6.95;;;;;;;;;;4994884;28;20023;-66
2023/10/08 03:06:03;;;;;;;20.35;5.97;;;;;;;;;;4995491;28;20022;-66
2023/10/08 03:08:31;;;;;;;23.70;6.53;;;;;;;;;;4995556;28;20015;-66
2023/10/08 03:11:02;;;;;;;23.35;5.97;;;;;;;;;;4994938;28;20486;-66
2023/10/08 03:13:27;;;;;;;18.10;6.35;;;;;;;;;;4995406;28;20029;-66
2023/10/08 03:18:36;;;;;;;20.58;5.88;;;;;;;;;;4995672;28;20264;-66
2023/10/08 03:21:04;;;;;;;22.98;6.60;;;;;;;;;;4995378;28;20034;-66
2023/10/08 03:23:34;;;;;;;23.80;6.55;;;;;;;;;;4995325;28;20069;-66
2023/10/08 03:26:28;;;;;;;22.05;7.25;;;;;;;;;;4995275;28;20034;-66
2023/10/08 03:28:57;;;;;;;24.20;6.78;;;;;;;;;;4990687;28;20049;-66
2023/10/08 03:31:31;;;;;;;24.48;7.65;;;;;;;;;;4995106;28;20471;-66
2023/10/08 03:33:57;;;;;;;19.02;7.00;;;;;;;;;;4995257;28;20474;-66
2023/10/08 03:36:33;;;;;;;27.63;8.02;;;;;;;;;;4995102;28;20085;-66
2023/10/08 03:38:59;;;;;;;18.75;7.45;;;;;;;;;;4995010;28;20112;-66
2023/10/08 03:41:27;;;;;;;21.60;7.13;;;;;;;;;;4994916;28;20084;-66
2023/10/08 03:43:53;;;;;;;21.50;7.82;;;;;;;;;;4994547;28;20092;-66
2023/10/08 03:46:23;;;;;;;19.42;7.05;;;;;;;;;;4995048;28;20462;-66
2023/10/08 03:48:51;;;;;;;20.05;6.97;;;;;;;;;;4994765;28;20022;-66
2023/10/08 03:51:19;;;;;;;19.08;7.68;;;;;;;;;;4994629;28;20022;-66
2023/10/08 03:56:46;;;;;;;20.00;7.05;;;;;;;;;;4972336;28;20062;-66
2023/10/08 03:59:20;;;;;;;17.90;6.68;;;;;;;;;;4993935;28;20034;-66
2023/10/08 04:01:46;;;;;;;22.40;7.65;;;;;;;;;;4994360;28;20080;-66
2023/10/08 04:04:14;;;;;;;19.05;6.32;;;;;;;;;;4994256;28;20030;-66
2023/10/08 04:06:47;;;;;;;25.10;6.68;;;;;;;;;;4994280;28;20536;-66
2023/10/08 04:09:16;;;;;;;17.65;6.18;;;;;;;;;;4994260;28;20495;-66
2023/10/08 04:11:55;;;;;;;17.67;6.80;;;;;;;;;;4986877;28;20437;-66
2023/10/08 04:14:21;;;;;;;21.50;7.28;;;;;;;;;;4994336;28;20033;-66
2023/10/08 04:16:51;;;;;;;21.85;7.47;;;;;;;;;;4993648;28;20470;-66
2023/10/08 04:19:18;;;;;;;16.40;6.85;;;;;;;;;;4994453;28;20036;-66
2023/10/08 04:21:43;;;;;;;19.73;6.88;;;;;;;;;;4993732;28;20019;-66
2023/10/08 04:24:08;;;;;;;23.50;8.00;;;;;;;;;;4994100;28;20033;-66
2023/10/08 04:26:34;;;;;;;24.48;7.55;;;;;;;;;;4994380;28;20371;-66
2023/10/08 04:29:03;;;;;;;20.42;6.60;;;;;;;;;;4993825;28;20030;-66
2023/10/08 04:31:37;;;;;;;22.33;6.97;;;;;;;;;;4994332;28;20022;-66
2023/10/08 04:34:08;;;;;;;;;;;;;;;;;;4994168;28;20080;-66
2023/10/08 04:36:33;;;;;;;24.02;7.25;;;;;;;;;;4994087;28;19957;-66
2023/10/08 04:39:04;;;;;;;25.63;7.67;;;;;;;;;;4993662;28;20489;-66
2023/10/08 04:41:30;;;;;;;17.33;6.55;;;;;;;;;;4978062;28;20022;-66
2023/10/08 04:43:55;;;;;;;23.80;7.60;;;;;;;;;;4993610;28;20389;-66
2023/10/08 04:49:07;;;;;;;18.95;7.18;;;;;;;;;;4994080;28;20026;-66
2023/10/08 04:51:43;;;;;;;21.05;6.28;;;;;;;;;;4993753;28;20018;-66
2023/10/08 04:54:09;;;;;;;17.40;7.15;;;;;;;;;;4993624;28;20017;-66
2023/10/08 04:56:34;;;;;;;19.50;6.47;;;;;;;;;;4993770;28;20105;-66
2023/10/08 04:58:59;;;;;;;19.73;6.83;;;;;;;;;;4993684;28;20023;-66
2023/10/08 05:02:12;;;;;;;22.55;6.72;;;;;;;;;;4993378;28;20335;-66
2023/10/08 05:04:23;;;;;;;20.35;6.70;;;;;;;;;;4987973;28;20042;-66
2023/10/08 05:14:17;;;;;;;24.25;7.30;;;;;;;;;;4993769;28;20069;-66
2023/10/08 05:17:00;;;;;;;21.13;7.50;;;;;;;;;;4993399;28;20018;-66
2023/10/08 05:19:47;;;;;;;17.52;6.60;;;;;;;;;;4993646;28;20053;-66
2023/10/08 05:25:07;;;;;;;14.43;5.82;;;;;;;;;;4993714;28;20019;-66
2023/10/08 05:27:38;;;;;;;21.10;6.82;;;;;;;;;;4994864;28;20101;-66
2023/10/08 05:38:22;;;;;;;18.23;6.47;;;;;;;;;;4997267;28;20054;-66
2023/10/08 05:54:24;;;;;;;27.17;8.45;;;;;;;;;;4996627;28;20489;-66
2023/10/08 06:03:07;;;;;;;20.27;8.05;;;;;;;;;;4996415;28;20497;-66
2023/10/08 06:13:09;;;;;;;22.02;8.73;;;;;;;;;;4996834;28;20027;-66
2023/10/08 06:18:28;;;;;;;28.17;8.05;;;;;;;;;;4996804;28;20053;-65
2023/10/08 06:20:58;;;;;;;;;;;;;;;;;;4996630;28;20402;-66
2023/10/08 06:23:24;;;;;;;25.73;7.63;;;;;;;;;;4996571;28;20320;-66
2023/10/08 06:25:56;;;;;;;20.73;6.88;;;;;;;;;;4996264;28;20019;-66
2023/10/08 06:28:25;;;;;;;18.02;7.32;;;;;;;;;;4988998;28;20018;-66
2023/10/08 06:30:53;;;;;;;21.92;7.57;;;;;;;;;;4996264;28;20511;-66
2023/10/08 06:33:19;;;;;;;21.83;5.97;;;;;;;;;;4996083;28;20022;-66
2023/10/08 06:35:44;;;;;;;22.38;8.55;;;;;;;;;;4996235;28;20391;-66
2023/10/08 06:38:10;;;;;;;22.43;6.80;;;;;;;;;;4996297;28;20105;-65
2023/10/08 06:43:11;;;;;;;21.80;8.32;;;;;;;;;;4996192;28;20351;-66
2023/10/08 06:45:36;;;;;;;22.90;7.53;;;;;;;;;;4996070;28;20025;-66
2023/10/08 06:48:06;;;;;;;27.15;8.23;;;;;;;;;;4995844;28;20018;-66
2023/10/08 06:50:31;;;;;;;22.10;7.70;;;;;;;;;;4995471;28;20125;-65
2023/10/08 06:52:57;;;;;;;19.55;7.53;;;;;;;;;;4996169;28;20112;-65
2023/10/08 06:55:25;;;;;;;20.33;8.13;;;;;;;;;;4995604;28;20459;-66
2023/10/08 06:57:50;;;;;;;20.92;8.18;;;;;;;;;;4987648;28;20061;-66
2023/10/08 07:00:37;;;;;;;26.23;7.47;;;;;;;;;;4995696;28;20077;-65
2023/10/08 07:03:01;;;;;;;24.15;8.40;;;;;;;;;;4995349;28;20489;-66
2023/10/08 07:05:28;;;;;;;21.30;8.32;;;;;;;;;;4995821;28;20050;-66
2023/10/08 07:07:54;;;;;;;23.90;9.02;;;;;;;;;;4995626;28;20474;-72
2023/10/08 07:10:19;;;;;;;19.17;8.60;;;;;;;;;;4995352;28;20042;-73
2023/10/08 07:12:46;;;;;;;32.35;10.27;;;;;;;;;;4995339;28;20041;-73
2023/10/08 07:15:13;;;;;;;23.27;10.23;;;;;;;;;;4995248;28;20057;-74
2023/10/08 07:17:40;;;;;;;22.80;8.02;;;;;;;;;;4995196;28;20425;-73
2023/10/08 07:20:21;;;;;;;24.75;8.45;;;;;;;;;;4995240;28;20022;-74
2023/10/08 07:22:48;;;;;;;22.10;8.52;;;;;;;;;;4995196;28;20018;-74
2023/10/08 07:25:15;;;;;;;18.92;7.63;;;;;;;;;;4995194;28;20486;-76
2023/10/08 07:27:40;;;;;;;22.60;8.27;;;;;;;;;;4995121;28;20022;-74
2023/10/08 07:30:10;;;;;;;38.17;8.07;;;;;;;;;;4991781;28;20085;-74
2023/10/08 07:32:38;;;;;;;16.52;6.88;;;;;;;;;;4994947;28;20041;-69
2023/10/08 07:35:23;;;;;;;20.20;7.13;;;;;;;;;;4995285;28;20029;-68
2023/10/08 07:37:48;;;;;;;12.23;5.20;;;;;;;;;;4995452;28;20030;-68
2023/10/08 07:40:14;;;;;;;20.23;6.33;;;;;;;;;;4995298;28;20041;-73
2023/10/08 07:42:40;;;;;;;19.25;6.10;;;;;;;;;;4995083;28;20318;-73
2023/10/08 07:45:05;;;;;;;18.40;5.90;;;;;;;;;;4994870;28;20054;-73
2023/10/08 07:47:31;;;;;;;15.05;6.00;;;;;;;;;;4993640;28;20161;-74
2023/10/08 07:49:56;;;;;;;19.98;6.03;;;;;;;;;;4993576;28;20026;-74
2023/10/08 07:52:22;;;;;;;16.58;6.15;;;;;;;;;;4993801;28;20041;-73
2023/10/08 07:54:47;;;;;;;43.92;14.55;;;;;;;;;;4994846;28;20501;-74
2023/10/08 07:57:17;;;;;;;19.43;6.87;;;;;;;;;;4995151;28;20076;-73
2023/10/08 07:59:48;;;;;;;16.55;5.85;;;;;;;;;;4993337;28;20057;-73
2023/10/08 08:02:14;;;;;;;17.58;5.72;;;;;;;;;;4994921;28;20033;-75
2023/10/08 08:04:45;;;;;;;15.48;6.13;;;;;;;;;;4989757;28;20150;-74
2023/10/08 08:07:16;;;;;;;14.07;5.32;;;;;;;;;;4976611;28;20382;-75
2023/10/08 08:09:58;;;;;;;18.02;5.72;;;;;;;;;;4986853;28;20046;-74
2023/10/08 08:12:25;;;;;;;20.60;9.13;;;;;;;;;;4994369;28;20050;-74
2023/10/08 08:14:50;;;;;;;13.85;5.68;;;;;;;;;;4994388;28;20694;-74
2023/10/08 08:17:16;;;;;;;14.23;5.72;;;;;;;;;;4993856;28;20034;-74
2023/10/08 08:19:47;;;;;;;13.70;5.45;;;;;;;;;;4993913;28;20022;-74
2023/10/08 08:22:19;;;;;;;16.48;5.38;;;;;;;;;;4993549;28;20030;-74
2023/10/08 08:24:45;;;;;;;24.25;5.53;;;;;;;;;;4994072;28;20018;-74
2023/10/08 08:27:31;;;;;;;13.95;5.75;;;;;;;;;;4993990;28;20382;-74
2023/10/08 08:30:01;;;;;;;15.32;5.22;;;;;;;;;;4994399;28;20073;-74
2023/10/08 08:32:28;;;;;;;13.18;5.03;;;;;;;;;;4993987;28;20026;-74
2023/10/08 08:34:53;;;;;;;14.20;4.90;;;;;;;;;;4993931;28;20022;-74
2023/10/08 08:37:22;;;;;;;17.10;5.38;;;;;;;;;;4992657;28;20026;-74
2023/10/08 08:39:47;;;;;;;15.23;5.10;;;;;;;;;;4993805;28;20040;-74
2023/10/08 08:42:14;;;;;;;17.43;5.90;;;;;;;;;;4993808;28;20030;-74
2023/10/08 08:44:47;;;;;;;14.27;5.72;;;;;;;;;;4993644;28;20021;-74
2023/10/08 08:47:17;;;;;;;13.25;5.50;;;;;;;;;;4993472;28;20023;-74
2023/10/08 08:49:43;;;;;;;16.10;5.85;;;;;;;;;;4993467;28;20024;-75
2023/10/08 08:52:08;;;;;;;17.48;5.20;;;;;;;;;;4993745;28;20389;-74
2023/10/08 08:54:36;;;;;;;13.30;5.13;;;;;;;;;;4992110;28;20129;-78
2023/10/08 08:57:04;;;;;;;15.35;6.20;;;;;;;;;;4986043;28;20723;-75
2023/10/08 08:59:30;;;;;;;23.52;6.15;;;;;;;;;;4990023;28;20110;-75
2023/10/08 09:01:57;;;;;;;12.30;5.28;;;;;;;;;;4991537;28;20046;-74
2023/10/08 09:04:32;;;;;;;15.82;5.47;;;;;;;;;;4993591;28;20053;-75
2023/10/08 09:06:59;;;;;;;15.30;5.82;;;;;;;;;;4993424;28;20498;-75
2023/10/08 09:09:30;;;;;;;14.55;5.00;;;;;;;;;;4992064;28;20567;-75
2023/10/08 09:11:57;;;;;;;15.30;6.13;;;;;;;;;;4993617;28;20022;-75
2023/10/08 09:14:25;;;;;;;14.32;5.78;;;;;;;;;;4992981;28;20018;-74
2023/10/08 09:16:54;;;;;;;19.13;6.07;;;;;;;;;;4992542;28;20077;-74
2023/10/08 09:19:21;;;;;;;13.73;5.35;;;;;;;;;;4992060;28;20141;-74
2023/10/08 09:21:59;;;;;;;18.58;5.93;;;;;;;;;;4993120;28;20428;-74
2023/10/08 09:24:25;;;;;;;14.85;6.50;;;;;;;;;;4993253;28;20390;-74
2023/10/08 09:26:51;;;;;;;16.70;5.65;;;;;;;;;;4993404;28;20022;-76
2023/10/08 09:29:17;;;;;;;13.93;6.18;;;;;;;;;;4993181;28;20030;-75
2023/10/08 09:31:48;;;;;;;10.43;5.30;;;;;;;;;;4993132;28;20471;-75
2023/10/08 09:34:16;;;;;;;15.27;5.65;;;;;;;;;;4993289;28;20030;-74
2023/10/08 09:36:42;;;;;;;16.27;5.90;;;;;;;;;;4991807;28;20078;-75
2023/10/08 09:39:07;;;;;;;13.73;5.80;;;;;;;;;;4992663;28;20433;-75
2023/10/08 09:41:33;;;;;;;17.65;5.30;;;;;;;;;;4992180;28;20427;-75
2023/10/08 09:43:58;;;;;;;13.98;5.53;;;;;;;;;;4991943;28;20023;-75
2023/10/08 09:46:42;;;;;;;14.05;6.20;;;;;;;;;;4992013;28;20521;-75
2023/10/08 09:49:11;;;;;;;12.32;4.95;;;;;;;;;;4992051;28;20030;-75
2023/10/08 09:51:39;;;;;;;13.02;5.75;;;;;;;;;;4993104;28;20026;-75
2023/10/08 09:54:24;;;;;;;10.93;4.95;;;;;;;;;;4993169;28;20034;-75
2023/10/08 09:56:50;;;;;;;12.18;5.18;;;;;;;;;;4992830;28;20023;-75
2023/10/08 09:59:15;;;;;;;13.98;5.32;;;;;;;;;;4992829;28;20027;-75
2023/10/08 10:01:42;;;;;;;12.70;5.35;;;;;;;;;;4992924;28;20042;-74
2023/10/08 10:04:11;;;;;;;14.00;5.07;;;;;;;;;;4992651;28;20034;-74
2023/10/08 10:06:36;;;;;;;13.10;5.35;;;;;;;;;;4993079;28;20421;-75
2023/10/08 10:09:06;;;;;;;14.98;5.68;;;;;;;;;;4991759;28;20038;-63
2023/10/08 10:11:31;;;;;;;13.73;6.22;;;;;;;;;;4992804;28;20418;-63
2023/10/08 10:14:00;;;;;;;15.85;5.18;;;;;;;;;;4993151;28;20085;-63
2023/10/08 10:16:26;;;;;;;15.93;6.03;;;;;;;;;;4991197;28;20041;-63
2023/10/08 10:18:56;;;;;;;20.55;5.22;;;;;;;;;;4989515;28;20026;-63
2023/10/08 10:21:27;;;;;;;10.73;5.15;;;;;;;;;;4996912;28;20057;-63
2023/10/08 10:23:53;;;;;;;18.10;6.25;;;;;;;;;;4996294;28;20033;-63
2023/10/08 10:26:30;;;;;;;13.27;5.35;;;;;;;;;;4996339;28;20042;-63
2023/10/08 10:29:19;;;;;;;10.77;4.97;;;;;;;;;;4996547;28;20470;-64
2023/10/08 10:31:49;;;;;;;12.27;5.22;;;;;;;;;;4986685;28;20391;-64
2023/10/08 10:34:18;;;;;;;15.10;5.30;;;;;;;;;;4996187;28;20049;-64
2023/10/08 10:36:48;;;;;;;18.85;5.38;;;;;;;;;;4995122;28;20493;-63
2023/10/08 10:39:16;;;;;;;13.23;4.95;;;;;;;;;;4996345;28;20030;-63
2023/10/08 10:41:43;;;;;;;15.55;5.20;;;;;;;;;;4995927;28;20065;-63
2023/10/08 10:44:08;;;;;;;11.32;4.70;;;;;;;;;;4995861;28;20034;-63
2023/10/08 10:46:41;;;;;;;13.25;4.93;;;;;;;;;;4996171;28;20044;-63
2023/10/08 10:49:18;;;;;;;14.75;5.00;;;;;;;;;;4995907;28;20549;-63
2023/10/08 10:51:43;;;;;;;13.45;4.68;;;;;;;;;;4986770;28;20493;-63
2023/10/08 10:54:09;;;;;;;13.30;5.32;;;;;;;;;;4990916;28;20030;-64
2023/10/08 10:56:42;;;;;;;16.23;5.53;;;;;;;;;;4994793;28;20023;-63
2023/10/08 10:59:26;;;;;;;17.23;5.45;;;;;;;;;;4990697;28;20030;-63
2023/10/08 11:01:52;;;;;;;14.15;4.70;;;;;;;;;;4992769;28;20105;-63
2023/10/08 11:04:19;;;;;;;14.57;5.15;;;;;;;;;;4995198;28;20118;-63
2023/10/08 11:06:45;;;;;;;10.00;4.80;;;;;;;;;;4994656;28;20023;-63
2023/10/08 11:09:15;;;;;;;13.93;5.65;;;;;;;;;;4993653;28;20058;-63
2023/10/08 11:11:43;;;;;;;11.13;5.57;;;;;;;;;;4995106;28;20386;-63
2023/10/08 11:14:15;;;;;;;12.63;5.03;;;;;;;;;;4994752;28;20034;-63
2023/10/08 11:16:43;;;;;;;16.33;5.07;;;;;;;;;;4994935;28;20026;-63
2023/10/08 11:19:08;;;;;;;11.70;5.13;;;;;;;;;;4995069;28;20487;-63
2023/10/08 11:21:47;;;;;;;14.63;5.40;;;;;;;;;;4994237;28;20022;-63
2023/10/08 11:24:24;;;;;;;12.25;5.15;;;;;;;;;;4988383;28;20548;-63
2023/10/08 11:27:06;;;;;;;15.60;4.55;;;;;;;;;;4994319;28;20020;-63
2023/10/08 11:29:31;;;;;;;10.93;4.77;;;;;;;;;;4994868;28;20041;-63
2023/10/08 11:31:56;;;;;;;10.63;4.63;;;;;;;;;;4994476;28;20629;-71
2023/10/08 11:34:24;;;;;;;14.25;4.93;;;;;;;;;;4994792;28;20267;-71
2023/10/08 11:36:55;;;;;;;11.95;4.60;;;;;;;;;;4993835;28;20093;-71
2023/10/08 11:39:29;;;;;;;11.10;4.60;;;;;;;;;;4994513;28;20437;-71
2023/10/08 11:41:55;;;;;;;14.68;4.50;;;;;;;;;;4994079;28;20014;-71
2023/10/08 11:44:23;;;;;;;15.18;4.82;;;;;;;;;;4994423;28;20026;-71
2023/10/08 11:46:51;;;;;;;14.02;5.03;;;;;;;;;;4994386;28;20072;-70
2023/10/08 11:49:25;;;;;;;22.17;5.03;;;;;;;;;;4994203;28;20065;-71
2023/10/08 11:51:52;;;;;;;11.90;4.30;;;;;;;;;;4994018;28;20134;-71
2023/10/08 11:54:17;;;;;;;16.00;5.38;;;;;;;;;;4993887;28;20026;-71
2023/10/08 11:56:42;;;;;;;14.35;5.13;;;;;;;;;;4994280;28;20101;-71
2023/10/08 11:59:11;;;;;;;21.27;5.10;;;;;;;;;;4993886;28;20026;-71
2023/10/08 12:01:40;;;;;;;8.88;4.43;;;;;;;;;;4994481;28;20029;-71
2023/10/08 12:04:12;;;;;;;12.45;4.70;;;;;;;;;;4994103;28;20084;-71
2023/10/08 12:06:37;;;;;;;14.82;4.78;;;;;;;;;;4993621;28;20449;-71
2023/10/08 12:09:11;;;;;;;11.40;3.97;;;;;;;;;;4994094;28;20038;-71
2023/10/08 12:11:37;;;;;;;13.18;4.55;;;;;;;;;;4993861;28;20144;-71
2023/10/08 12:14:03;;;;;;;13.13;4.82;;;;;;;;;;4994170;28;20069;-71
2023/10/08 12:16:35;;;;;;;18.58;4.95;;;;;;;;;;4993612;28;20126;-71
2023/10/08 12:19:00;;;;;;;11.20;4.82;;;;;;;;;;4993768;28;20501;-71
2023/10/08 12:21:29;;;;;;;15.85;5.57;;;;;;;;;;4993191;28;20023;-71
2023/10/08 12:23:54;;;;;;;12.60;4.78;;;;;;;;;;4993504;28;20034;-71
2023/10/08 12:26:20;;;;;;;14.40;4.68;;;;;;;;;;4993564;28;20019;-71
2023/10/08 12:28:46;;;;;;;11.40;4.43;;;;;;;;;;4993546;28;20102;-71
2023/10/08 12:31:12;;;;;;;13.55;4.93;;;;;;;;;;4993503;28;20541;-71
2023/10/08 12:33:37;;;;;;;16.20;4.95;;;;;;;;;;4993536;28;20054;-71
2023/10/08 12:36:10;;;;;;;15.97;4.70;;;;;;;;;;4992894;28;20036;-71
2023/10/08 12:38:36;;;;;;;12.88;4.80;;;;;;;;;;4984738;28;20072;-70
2023/10/08 12:41:08;;;;;;;15.57;5.25;;;;;;;;;;4993339;28;20062;-71
2023/10/08 12:43:35;;;;;;;;;;;;;;;;;;4989784;28;20123;-71
2023/10/08 12:46:02;;;;;;;12.55;4.82;;;;;;;;;;4985945;28;19906;-71
2023/10/08 12:48:27;;;;;;;11.98;4.50;;;;;;;;;;4988941;28;20022;-71
2023/10/08 12:51:00;;;;;;;15.50;4.65;;;;;;;;;;4980945;28;20048;-70
2023/10/08 12:53:39;;;;;;;16.85;4.82;;;;;;;;;;4993698;28;20026;-71
2023/10/08 12:56:14;;;;;;;14.68;4.45;;;;;;;;;;4993580;28;20096;-71
2023/10/08 12:58:48;;;;;;;14.52;5.50;;;;;;;;;;4993796;28;20513;-71
2023/10/08 13:01:14;;;;;;;13.18;5.20;;;;;;;;;;4993676;28;20109;-71
2023/10/08 13:03:42;;;;;;;18.48;4.97;;;;;;;;;;4986179;28;20102;-71
2023/10/08 13:06:14;;;;;;;18.40;4.50;;;;;;;;;;4992583;28;20022;-71
2023/10/08 13:08:40;;;;;;;14.90;4.82;;;;;;;;;;4992768;28;20022;-72
2023/10/08 13:11:05;;;;;;;17.75;4.70;;;;;;;;;;4993432;28;20048;-68
2023/10/08 13:13:32;;;;;;;21.63;5.13;;;;;;;;;;4993208;28;20521;-69
2023/10/08 13:16:00;;;;;;;19.25;5.07;;;;;;;;;;4993206;28;20030;-71
2023/10/08 13:18:26;;;;;;;15.10;4.35;;;;;;;;;;4994100;28;20101;-71
2023/10/08 13:20:55;;;;;;;22.05;5.18;;;;;;;;;;4993944;28;20502;-71
2023/10/08 13:23:23;;;;;;;17.08;4.88;;;;;;;;;;4993950;28;20478;-71
2023/10/08 13:25:53;;;;;;;24.73;5.13;;;;;;;;;;4994039;28;20034;-71
2023/10/08 13:28:20;;;;;;;13.57;4.88;;;;;;;;;;4993716;28;20023;-71
2023/10/08 13:30:46;;;;;;;14.30;4.55;;;;;;;;;;4993669;28;20018;-71
2023/10/08 13:33:11;;;;;;;14.90;4.90;;;;;;;;;;4993689;28;20018;-71
2023/10/08 13:35:36;;;;;;;16.73;4.87;;;;;;;;;;4993724;28;20442;-71
2023/10/08 13:38:09;;;;;;;13.87;4.27;;;;;;;;;;4993951;28;20053;-70
2023/10/08 13:40:39;;;;;;;15.63;4.57;;;;;;;;;;4993931;28;20466;-71
2023/10/08 13:43:05;;;;;;;17.85;4.63;;;;;;;;;;4993509;28;20106;-71
2023/10/08 13:45:32;;;;;;;18.15;4.78;;;;;;;;;;4993862;28;20053;-70
2023/10/08 13:47:59;;;;;;;20.95;4.85;;;;;;;;;;4994519;28;20415;-71
2023/10/08 13:50:24;;;;;;;18.25;5.13;;;;;;;;;;4997293;28;20023;-71
2023/10/08 13:52:50;;;;;;;25.35;4.85;;;;;;;;;;4997447;28;20029;-63
2023/10/08 13:55:18;;;;;;;23.77;5.10;;;;;;;;;;4997493;28;20034;-62
2023/10/08 13:57:46;;;;;;;22.73;5.10;;;;;;;;;;4997204;28;20248;-63
2023/10/08 14:00:15;;;;;;;17.48;5.18;;;;;;;;;;4997452;28;20077;-62
2023/10/08 14:02:40;;;;;;;19.40;4.05;;;;;;;;;;4997270;28;20030;-62
2023/10/08 14:05:08;;;;;;;19.38;4.97;;;;;;;;;;4997195;28;20019;-62
2023/10/08 14:07:35;;;;;;;22.05;4.72;;;;;;;;;;4997328;28;20029;-63
2023/10/08 14:10:05;;;;;;;22.27;5.43;;;;;;;;;;4996987;28;20525;-62
2023/10/08 14:12:34;;;;;;;24.10;4.82;;;;;;;;;;4997220;28;20026;-63
2023/10/08 14:14:59;;;;;;;21.10;4.72;;;;;;;;;;4997160;28;20069;-62
2023/10/08 14:17:42;;;;;;;19.40;5.40;;;;;;;;;;4996884;28;20497;-62
2023/10/08 14:20:12;;;;;;;22.85;5.10;;;;;;;;;;4997089;28;20733;-62
2023/10/08 14:22:38;;;;;;;15.75;5.30;;;;;;;;;;4997010;28;20570;-62
2023/10/08 14:25:11;;;;;;;20.25;4.72;;;;;;;;;;4997037;28;20045;-63
2023/10/08 14:27:39;;;;;;;15.35;4.55;;;;;;;;;;4996961;28;20549;-62
2023/10/08 14:30:15;;;;;;;23.70;4.75;;;;;;;;;;4996612;28;20022;-62
2023/10/08 14:32:45;;;;;;;15.13;4.00;;;;;;;;;;4996815;28;20029;-62
2023/10/08 14:43:23;;;;;;;24.50;4.57;;;;;;;;;;4996478;28;20088;-62
2023/10/08 14:45:49;;;;;;;22.88;4.93;;;;;;;;;;4996304;28;20031;-62
2023/10/08 14:48:14;;;;;;;17.85;4.72;;;;;;;;;;4996583;28;20030;-63
2023/10/08 14:50:40;;;;;;;16.47;4.37;;;;;;;;;;4996285;28;20018;-62
2023/10/08 14:53:05;;;;;;;15.80;5.25;;;;;;;;;;4996450;28;20268;-63
2023/10/08 14:55:33;;;;;;;15.75;4.85;;;;;;;;;;4996062;28;20026;-62
2023/10/08 14:58:06;;;;;;;16.65;4.47;;;;;;;;;;4996425;28;20034;-63
2023/10/08 15:00:31;;;;;;;16.45;5.15;;;;;;;;;;4995620;28;20046;-63
2023/10/08 15:02:58;;;;;;;14.45;4.38;;;;;;;;;;4996362;28;20511;-63
2023/10/08 15:05:23;;;;;;;17.65;4.55;;;;;;;;;;4995947;28;20026;-62
2023/10/08 15:07:49;;;;;;;14.55;4.82;;;;;;;;;;4995982;28;20089;-62
2023/10/08 15:10:14;;;;;;;10.93;4.28;;;;;;;;;;4995828;28;20467;-62
2023/10/08 15:12:40;;;;;;;16.35;4.75;;;;;;;;;;4995861;28;20022;-63
2023/10/08 15:15:12;;;;;;;18.67;4.90;;;;;;;;;;4995765;28;20077;-63
2023/10/08 15:17:38;;;;;;;14.98;5.03;;;;;;;;;;4995809;28;20030;-62
2023/10/08 15:20:03;;;;;;;20.42;5.00;;;;;;;;;;4995754;28;20022;-62
2023/10/08 15:22:28;;;;;;;14.15;4.03;;;;;;;;;;4995897;28;20467;-63
2023/10/08 15:24:54;;;;;;;20.37;5.20;;;;;;;;;;4995644;28;20462;-62
2023/10/08 15:27:20;;;;;;;20.42;4.97;;;;;;;;;;4995644;28;20025;-62
2023/10/08 15:29:45;;;;;;;18.83;4.95;;;;;;;;;;4995825;28;20489;-62
2023/10/08 15:32:10;;;;;;;19.53;5.40;;;;;;;;;;4995493;28;20105;-63
2023/10/08 15:34:36;;;;;;;15.68;4.95;;;;;;;;;;4995709;28;20031;-63
2023/10/08 15:37:01;;;;;;;20.05;5.70;;;;;;;;;;4995398;28;20046;-63
2023/10/08 15:39:28;;;;;;;16.17;5.07;;;;;;;;;;4995352;28;20064;-62
2023/10/08 15:41:55;;;;;;;18.08;5.18;;;;;;;;;;4995567;28;20256;-63
2023/10/08 15:44:23;;;;;;;18.38;4.70;;;;;;;;;;4995425;28;20036;-63
2023/10/08 15:46:49;;;;;;;13.70;4.55;;;;;;;;;;4995247;28;20101;-62
2023/10/08 15:49:14;;;;;;;16.15;4.63;;;;;;;;;;4995470;28;20045;-63